createdAt,value
2018-10-18T00:00:59.914Z,0
2018-10-18T00:02:00.521Z,0
2018-10-18T00:03:01.059Z,0
2018-10-18T00:04:01.630Z,0
2018-10-18T00:05:02.216Z,0
2018-10-18T00:06:02.875Z,0
2018-10-18T00:07:03.362Z,0
2018-10-18T00:08:03.970Z,0
2018-10-18T00:09:04.506Z,0
2018-10-18T00:10:05.077Z,0
2018-10-18T00:11:05.648Z,0
2018-10-18T00:12:06.244Z,0
2018-10-18T00:13:06.799Z,0
2018-10-18T00:14:07.460Z,0
2018-10-18T00:15:07.948Z,0
2018-10-18T00:16:08.521Z,0
2018-10-18T00:17:09.089Z,0
2018-10-18T00:18:09.751Z,0
2018-10-18T00:19:10.237Z,0
2018-10-18T00:20:10.835Z,0
2018-10-18T00:21:11.377Z,0
2018-10-18T00:22:11.947Z,0
2018-10-18T00:23:12.517Z,0
2018-10-18T00:24:13.170Z,0
2018-10-18T00:25:13.670Z,0
2018-10-18T00:26:14.315Z,0
2018-10-18T00:27:14.811Z,0
2018-10-18T00:28:15.385Z,0
2018-10-18T00:29:15.957Z,0
2018-10-18T00:30:16.724Z,0
2018-10-18T00:31:17.107Z,0
2018-10-18T00:32:17.678Z,0
2018-10-18T00:33:18.247Z,0
2018-10-18T00:34:18.818Z,0
2018-10-18T00:35:19.396Z,0
2018-10-18T00:36:19.960Z,0
2018-10-18T00:37:20.532Z,0
2018-10-18T00:38:21.104Z,0
2018-10-18T00:39:21.678Z,0
2018-10-18T00:40:22.264Z,0
2018-10-18T00:41:22.833Z,0
2018-10-18T00:42:23.404Z,0
2018-10-18T00:43:23.976Z,0
2018-10-18T00:44:24.552Z,0
2018-10-18T00:45:25.120Z,0
2018-10-18T00:46:25.696Z,0
2018-10-18T00:47:26.276Z,0
2018-10-18T00:48:26.850Z,0
2018-10-18T00:49:27.423Z,0
2018-10-18T00:50:27.990Z,0
2018-10-18T00:51:28.562Z,0
2018-10-18T00:52:29.135Z,0
2018-10-18T00:53:29.707Z,0
2018-10-18T00:54:30.281Z,0
2018-10-18T00:55:30.855Z,0
2018-10-18T00:56:31.425Z,0
2018-10-18T00:57:32.000Z,0
2018-10-18T00:58:32.571Z,0
2018-10-18T00:59:33.154Z,0
2018-10-18T01:00:33.738Z,0
2018-10-18T01:01:34.306Z,0
2018-10-18T01:02:34.878Z,0
2018-10-18T01:03:35.461Z,0
2018-10-18T01:04:36.032Z,0
2018-10-18T01:05:36.604Z,0
2018-10-18T01:06:37.175Z,0
2018-10-18T01:07:37.748Z,0
2018-10-18T01:08:38.319Z,0
2018-10-18T01:09:38.893Z,0
2018-10-18T01:10:39.463Z,0
2018-10-18T01:11:40.035Z,0
2018-10-18T01:12:40.625Z,0
2018-10-18T01:13:41.178Z,0
2018-10-18T01:14:41.763Z,0
2018-10-18T01:15:42.319Z,0
2018-10-18T01:16:42.890Z,0
2018-10-18T01:17:43.460Z,0
2018-10-18T01:18:44.032Z,0
2018-10-18T01:19:44.605Z,0
2018-10-18T01:20:51.448Z,0
2018-10-18T01:21:52.021Z,0
2018-10-18T01:22:52.595Z,0
2018-10-18T01:23:53.184Z,0
2018-10-18T01:24:53.742Z,0
2018-10-18T01:25:54.338Z,0
2018-10-18T01:26:54.898Z,0
2018-10-18T01:27:55.482Z,0
2018-10-18T01:28:56.054Z,0
2018-10-18T01:29:56.675Z,0
2018-10-18T01:30:57.210Z,0
2018-10-18T01:31:57.791Z,0
2018-10-18T01:32:58.355Z,0
2018-10-18T01:33:58.926Z,0
2018-10-18T01:34:59.499Z,0
2018-10-18T01:36:00.089Z,0
2018-10-18T01:37:00.656Z,0
2018-10-18T01:38:01.309Z,0
2018-10-18T01:39:01.807Z,0
2018-10-18T01:40:02.380Z,0
2018-10-18T01:41:02.954Z,0
2018-10-18T01:42:03.589Z,0
2018-10-18T01:43:04.099Z,0
2018-10-18T01:44:04.695Z,0
2018-10-18T01:45:05.245Z,0
2018-10-18T01:46:05.830Z,0
2018-10-18T01:47:06.400Z,0
2018-10-18T01:48:06.996Z,0
2018-10-18T01:49:07.546Z,0
2018-10-18T01:50:08.184Z,0
2018-10-18T01:51:08.692Z,0
2018-10-18T01:52:09.274Z,0
2018-10-18T01:53:09.847Z,0
2018-10-18T01:54:10.513Z,0
2018-10-18T01:55:10.991Z,0
2018-10-18T01:56:11.613Z,0
2018-10-18T01:57:12.152Z,0
2018-10-18T01:58:12.734Z,0
2018-10-18T01:59:13.308Z,0
2018-10-18T02:00:13.940Z,0
2018-10-18T02:01:14.454Z,0
2018-10-18T02:02:15.065Z,0
2018-10-18T02:03:15.597Z,0
2018-10-18T02:04:16.171Z,0
2018-10-18T02:05:16.756Z,0
2018-10-18T02:06:17.421Z,0
2018-10-18T02:07:17.904Z,0
2018-10-18T02:08:18.516Z,0
2018-10-18T02:09:19.046Z,0
2018-10-18T02:10:19.616Z,0
2018-10-18T02:11:20.195Z,0
2018-10-18T02:12:20.768Z,0
2018-10-18T02:13:21.347Z,0
2018-10-18T02:14:21.919Z,0
2018-10-18T02:15:22.492Z,0
2018-10-18T02:16:23.067Z,0
2018-10-18T02:17:23.643Z,0
2018-10-18T02:18:24.215Z,0
2018-10-18T02:19:24.787Z,0
2018-10-18T02:20:25.359Z,0
2018-10-18T02:21:25.933Z,0
2018-10-18T02:22:26.506Z,0
2018-10-18T02:23:27.077Z,0
2018-10-18T02:24:27.650Z,0
2018-10-18T02:25:28.224Z,0
2018-10-18T02:26:28.797Z,0
2018-10-18T02:27:29.372Z,0
2018-10-18T02:28:29.943Z,0
2018-10-18T02:29:30.529Z,0
2018-10-18T02:30:31.104Z,0
2018-10-18T02:31:31.676Z,0
2018-10-18T02:32:32.250Z,0
2018-10-18T02:33:32.822Z,0
2018-10-18T02:34:33.394Z,0
2018-10-18T02:35:33.967Z,0
2018-10-18T02:36:34.540Z,0
2018-10-18T02:37:35.117Z,0
2018-10-18T02:38:35.699Z,0
2018-10-18T02:39:36.273Z,0
2018-10-18T02:40:36.846Z,0
2018-10-18T02:41:37.418Z,0
2018-10-18T02:42:37.993Z,0
2018-10-18T02:43:38.569Z,0
2018-10-18T02:44:39.139Z,0
2018-10-18T02:45:39.710Z,0
2018-10-18T02:46:40.282Z,0
2018-10-18T02:47:40.866Z,0
2018-10-18T02:48:41.440Z,0
2018-10-18T02:49:42.014Z,0
2018-10-18T02:50:42.590Z,0
2018-10-18T02:51:43.162Z,0
2018-10-18T02:52:43.732Z,0
2018-10-18T02:53:44.304Z,0
2018-10-18T02:54:44.889Z,0
2018-10-18T02:55:45.464Z,0
2018-10-18T02:56:46.035Z,0
2018-10-18T02:57:46.607Z,0
2018-10-18T02:58:47.181Z,0
2018-10-18T02:59:47.757Z,0
2018-10-18T03:00:48.329Z,0
2018-10-18T03:01:48.906Z,0
2018-10-18T03:02:49.488Z,0
2018-10-18T03:03:50.062Z,0
2018-10-18T03:04:50.636Z,0
2018-10-18T03:05:51.210Z,0
2018-10-18T03:06:51.781Z,0
2018-10-18T03:07:52.353Z,0
2018-10-18T03:08:52.926Z,0
2018-10-18T03:09:53.508Z,0
2018-10-18T03:10:54.069Z,0
2018-10-18T03:11:54.663Z,0
2018-10-18T03:12:55.225Z,0
2018-10-18T03:13:55.800Z,0
2018-10-18T03:14:56.381Z,0
2018-10-18T03:15:56.999Z,0
2018-10-18T03:16:57.526Z,0
2018-10-18T03:17:58.118Z,0
2018-10-18T03:18:58.673Z,0
2018-10-18T03:19:59.244Z,0
2018-10-18T03:20:59.817Z,0
2018-10-18T03:22:00.389Z,0
2018-10-18T03:23:00.975Z,0
2018-10-18T03:24:01.663Z,0
2018-10-18T03:25:02.138Z,0
2018-10-18T03:26:02.722Z,0
2018-10-18T03:27:03.305Z,0
2018-10-18T03:28:03.888Z,0
2018-10-18T03:29:04.461Z,0
2018-10-18T03:30:05.125Z,0
2018-10-18T03:31:05.607Z,0
2018-10-18T03:32:06.192Z,0
2018-10-18T03:33:06.759Z,0
2018-10-18T03:34:07.341Z,0
2018-10-18T03:35:07.913Z,0
2018-10-18T03:36:08.543Z,0
2018-10-18T03:37:09.061Z,0
2018-10-18T03:38:09.634Z,0
2018-10-18T03:39:10.218Z,0
2018-10-18T03:40:10.799Z,0
2018-10-18T03:41:11.376Z,0
2018-10-18T03:42:11.985Z,0
2018-10-18T03:43:12.521Z,0
2018-10-18T03:44:13.094Z,0
2018-10-18T03:45:13.668Z,0
2018-10-18T03:46:14.242Z,0
2018-10-18T03:47:14.816Z,0
2018-10-18T03:48:15.569Z,0
2018-10-18T03:49:15.961Z,0
2018-10-18T03:50:16.531Z,0
2018-10-18T03:51:17.115Z,0
2018-10-18T03:52:17.691Z,0
2018-10-18T03:53:18.262Z,0
2018-10-18T03:54:18.839Z,0
2018-10-18T03:55:19.405Z,0
2018-10-18T03:56:19.989Z,0
2018-10-18T03:57:20.562Z,0
2018-10-18T03:58:21.133Z,0
2018-10-18T03:59:21.710Z,0
2018-10-18T04:00:22.426Z,0
2018-10-18T04:01:22.861Z,0
2018-10-18T04:02:23.445Z,0
2018-10-18T04:03:24.020Z,0
2018-10-18T04:04:24.592Z,0
2018-10-18T04:05:25.166Z,0
2018-10-18T04:06:25.738Z,0
2018-10-18T04:07:26.322Z,0
2018-10-18T04:08:26.897Z,0
2018-10-18T04:09:27.468Z,0
2018-10-18T04:10:28.043Z,0
2018-10-18T04:11:28.612Z,0
2018-10-18T04:12:29.189Z,0
2018-10-18T04:13:29.765Z,0
2018-10-18T04:14:30.338Z,0
2018-10-18T04:15:30.912Z,0
2018-10-18T04:16:31.500Z,0
2018-10-18T04:17:32.056Z,0
2018-10-18T04:18:32.684Z,0
2018-10-18T04:19:33.204Z,0
2018-10-18T04:20:33.784Z,0
2018-10-18T04:21:34.356Z,0
2018-10-18T04:22:34.929Z,0
2018-10-18T04:23:35.502Z,0
2018-10-18T04:24:36.086Z,0
2018-10-18T04:25:36.666Z,0
2018-10-18T04:26:37.231Z,0
2018-10-18T04:27:37.803Z,0
2018-10-18T04:28:38.374Z,0
2018-10-18T04:29:38.947Z,0
2018-10-18T04:30:39.519Z,0
2018-10-18T04:31:40.093Z,0
2018-10-18T04:32:40.673Z,0
2018-10-18T04:33:41.245Z,0
2018-10-18T04:34:41.817Z,0
2018-10-18T04:35:42.388Z,0
2018-10-18T04:36:42.969Z,0
2018-10-18T04:37:43.545Z,0
2018-10-18T04:38:44.117Z,0
2018-10-18T04:39:44.702Z,0
2018-10-18T04:40:45.280Z,0
2018-10-18T04:41:45.850Z,0
2018-10-18T04:42:46.421Z,0
2018-10-18T04:43:46.992Z,0
2018-10-18T04:44:47.565Z,0
2018-10-18T04:45:48.136Z,0
2018-10-18T04:46:48.709Z,0
2018-10-18T04:47:49.387Z,0
2018-10-18T04:48:49.939Z,0
2018-10-18T04:49:50.429Z,0
2018-10-18T04:50:51.004Z,0
2018-10-18T04:51:51.586Z,0
2018-10-18T04:52:52.159Z,0
2018-10-18T04:53:52.731Z,0
2018-10-18T04:54:53.307Z,0
2018-10-18T04:55:53.876Z,0
2018-10-18T04:56:54.495Z,0
2018-10-18T04:57:55.019Z,0
2018-10-18T04:58:55.591Z,0
2018-10-18T04:59:56.162Z,0
2018-10-18T05:00:56.795Z,0
2018-10-18T05:01:57.319Z,0
2018-10-18T05:02:57.891Z,0
2018-10-18T05:03:58.464Z,0
2018-10-18T05:04:59.035Z,0
2018-10-18T05:05:59.608Z,0
2018-10-18T05:07:00.227Z,0
2018-10-18T05:08:00.755Z,0
2018-10-18T05:09:01.329Z,0
2018-10-18T05:10:01.914Z,0
2018-10-18T05:11:02.493Z,0
2018-10-18T05:12:03.065Z,0
2018-10-18T05:13:03.713Z,0
2018-10-18T05:14:04.207Z,0
2018-10-18T05:15:04.782Z,0
2018-10-18T05:16:05.362Z,0
2018-10-18T05:17:05.935Z,0
2018-10-18T05:18:06.507Z,0
2018-10-18T05:19:07.104Z,0
2018-10-18T05:20:07.651Z,0
2018-10-18T05:21:08.228Z,0
2018-10-18T05:22:08.806Z,0
2018-10-18T05:23:09.379Z,0
2018-10-18T05:24:09.952Z,0
2018-10-18T05:25:10.621Z,0
2018-10-18T05:26:11.098Z,0
2018-10-18T05:27:11.670Z,0
2018-10-18T05:28:12.247Z,0
2018-10-18T05:29:12.830Z,0
2018-10-18T05:30:13.402Z,0
2018-10-18T05:31:14.071Z,0
2018-10-18T05:32:14.549Z,0
2018-10-18T05:33:15.121Z,0
2018-10-18T05:34:15.692Z,0
2018-10-18T05:35:16.264Z,0
2018-10-18T05:36:16.838Z,0
2018-10-18T05:37:17.489Z,0
2018-10-18T05:38:17.995Z,0
2018-10-18T05:39:18.564Z,0
2018-10-18T05:40:19.148Z,0
2018-10-18T05:41:19.720Z,4
2018-10-18T05:42:20.294Z,0
2018-10-18T05:43:20.939Z,0
2018-10-18T05:44:21.438Z,4
2018-10-18T05:45:22.010Z,4
2018-10-18T05:46:22.581Z,0
2018-10-18T05:47:23.214Z,0
2018-10-18T05:48:23.733Z,4
2018-10-18T05:49:24.307Z,4
2018-10-18T05:50:24.891Z,8
2018-10-18T05:51:25.463Z,4
2018-10-18T05:52:26.038Z,4
2018-10-18T05:53:26.683Z,4
2018-10-18T05:54:27.194Z,8
2018-10-18T05:55:27.770Z,8
2018-10-18T05:56:28.340Z,12
2018-10-18T05:57:28.911Z,8
2018-10-18T05:58:29.484Z,8
2018-10-18T05:59:30.057Z,16
2018-10-18T06:00:30.630Z,12
2018-10-18T06:01:31.203Z,16
2018-10-18T06:02:31.779Z,16
2018-10-18T06:03:32.362Z,20
2018-10-18T06:04:32.935Z,20
2018-10-18T06:05:33.510Z,20
2018-10-18T06:06:34.084Z,24
2018-10-18T06:07:34.657Z,24
2018-10-18T06:08:35.229Z,24
2018-10-18T06:09:35.801Z,28
2018-10-18T06:10:36.516Z,32
2018-10-18T06:11:36.949Z,32
2018-10-18T06:12:37.531Z,36
2018-10-18T06:13:38.105Z,36
2018-10-18T06:14:38.678Z,36
2018-10-18T06:15:39.252Z,40
2018-10-18T06:16:39.825Z,44
2018-10-18T06:17:40.411Z,44
2018-10-18T06:18:40.985Z,48
2018-10-18T06:19:41.559Z,48
2018-10-18T06:20:42.138Z,52
2018-10-18T06:21:42.705Z,52
2018-10-18T06:22:43.317Z,56
2018-10-18T06:23:43.852Z,56
2018-10-18T06:24:44.425Z,60
2018-10-18T06:25:45.001Z,60
2018-10-18T06:26:45.574Z,60
2018-10-18T06:27:46.148Z,60
2018-10-18T06:28:46.729Z,64
2018-10-18T06:29:47.302Z,60
2018-10-18T06:30:47.879Z,64
2018-10-18T06:31:48.461Z,68
2018-10-18T06:32:49.048Z,76
2018-10-18T06:33:49.618Z,76
2018-10-18T06:34:50.193Z,80
2018-10-18T06:35:50.766Z,80
2018-10-18T06:36:51.340Z,84
2018-10-18T06:37:51.911Z,88
2018-10-18T06:38:52.486Z,84
2018-10-18T06:39:53.057Z,84
2018-10-18T06:40:53.678Z,88
2018-10-18T06:41:54.206Z,88
2018-10-18T06:42:54.781Z,92
2018-10-18T06:43:55.353Z,92
2018-10-18T06:44:55.927Z,92
2018-10-18T06:45:56.498Z,92
2018-10-18T06:46:57.122Z,96
2018-10-18T06:47:57.877Z,92
2018-10-18T06:48:58.307Z,92
2018-10-18T06:49:58.831Z,92
2018-10-18T06:50:59.363Z,84
2018-10-18T06:51:59.933Z,88
2018-10-18T06:53:00.507Z,84
2018-10-18T06:54:01.147Z,84
2018-10-18T06:55:01.666Z,84
2018-10-18T06:56:02.240Z,88
2018-10-18T06:57:02.813Z,84
2018-10-18T06:58:03.385Z,88
2018-10-18T06:59:03.969Z,96
2018-10-18T07:00:04.600Z,96
2018-10-18T07:01:05.116Z,96
2018-10-18T07:02:05.689Z,96
2018-10-18T07:03:06.263Z,100
2018-10-18T07:04:06.837Z,100
2018-10-18T07:05:07.421Z,100
2018-10-18T07:06:07.999Z,108
2018-10-18T07:07:08.566Z,112
2018-10-18T07:08:09.142Z,120
2018-10-18T07:09:09.716Z,128
2018-10-18T07:10:10.302Z,132
2018-10-18T07:11:10.971Z,132
2018-10-18T07:12:11.493Z,140
2018-10-18T07:13:12.033Z,148
2018-10-18T07:14:12.608Z,160
2018-10-18T07:15:13.183Z,168
2018-10-18T07:16:13.764Z,176
2018-10-18T07:17:14.341Z,176
2018-10-18T07:18:15.013Z,176
2018-10-18T07:19:15.486Z,180
2018-10-18T07:20:16.064Z,180
2018-10-18T07:21:16.645Z,184
2018-10-18T07:22:17.220Z,196
2018-10-18T07:23:17.796Z,188
2018-10-18T07:24:18.391Z,192
2018-10-18T07:25:18.978Z,192
2018-10-18T07:26:19.530Z,188
2018-10-18T07:27:20.098Z,196
2018-10-18T07:28:20.673Z,196
2018-10-18T07:29:21.245Z,196
2018-10-18T07:30:21.820Z,216
2018-10-18T07:31:22.405Z,216
2018-10-18T07:32:22.978Z,204
2018-10-18T07:33:23.554Z,212
2018-10-18T07:34:24.128Z,200
2018-10-18T07:35:24.715Z,212
2018-10-18T07:36:25.290Z,224
2018-10-18T07:37:25.879Z,220
2018-10-18T07:38:26.453Z,220
2018-10-18T07:39:27.028Z,212
2018-10-18T07:40:27.602Z,208
2018-10-18T07:41:28.177Z,216
2018-10-18T07:42:28.751Z,232
2018-10-18T07:43:29.327Z,232
2018-10-18T07:44:29.901Z,236
2018-10-18T07:45:30.477Z,220
2018-10-18T07:46:31.062Z,208
2018-10-18T07:47:31.638Z,208
2018-10-18T07:48:32.223Z,212
2018-10-18T07:49:32.802Z,208
2018-10-18T07:50:33.384Z,216
2018-10-18T07:51:33.960Z,220
2018-10-18T07:52:34.534Z,220
2018-10-18T07:53:35.117Z,224
2018-10-18T07:54:35.683Z,236
2018-10-18T07:55:36.270Z,272
2018-10-18T07:56:36.856Z,284
2018-10-18T07:57:37.444Z,288
2018-10-18T07:58:38.019Z,288
2018-10-18T07:59:38.594Z,292
2018-10-18T08:00:39.298Z,300
2018-10-18T08:01:39.746Z,300
2018-10-18T08:02:40.320Z,300
2018-10-18T08:03:40.896Z,308
2018-10-18T08:04:41.472Z,308
2018-10-18T08:05:42.048Z,308
2018-10-18T08:06:42.632Z,312
2018-10-18T08:07:43.208Z,308
2018-10-18T08:08:43.782Z,308
2018-10-18T08:09:44.356Z,308
2018-10-18T08:10:44.935Z,312
2018-10-18T08:11:45.516Z,316
2018-10-18T08:12:46.087Z,316
2018-10-18T08:13:46.678Z,316
2018-10-18T08:14:47.248Z,312
2018-10-18T08:15:47.825Z,316
2018-10-18T08:16:48.463Z,312
2018-10-18T08:17:48.992Z,312
2018-10-18T08:18:49.568Z,312
2018-10-18T08:19:50.144Z,312
2018-10-18T08:20:50.720Z,312
2018-10-18T08:21:51.294Z,308
2018-10-18T08:22:51.870Z,320
2018-10-18T08:23:52.446Z,316
2018-10-18T08:24:53.025Z,312
2018-10-18T08:25:53.599Z,280
2018-10-18T08:26:54.185Z,272
2018-10-18T08:27:54.759Z,320
2018-10-18T08:28:55.334Z,328
2018-10-18T08:29:55.909Z,328
2018-10-18T08:30:56.507Z,340
2018-10-18T08:31:57.073Z,332
2018-10-18T08:32:57.651Z,332
2018-10-18T08:33:58.227Z,332
2018-10-18T08:34:58.800Z,328
2018-10-18T08:35:59.375Z,336
2018-10-18T08:36:59.960Z,340
2018-10-18T08:38:00.658Z,352
2018-10-18T08:39:01.104Z,352
2018-10-18T08:40:01.679Z,264
2018-10-18T08:41:02.257Z,344
2018-10-18T08:42:02.833Z,292
2018-10-18T08:43:03.436Z,336
2018-10-18T08:44:04.087Z,324
2018-10-18T08:45:04.573Z,412
2018-10-18T08:46:05.160Z,444
2018-10-18T08:47:05.737Z,452
2018-10-18T08:48:06.314Z,448
2018-10-18T08:49:06.943Z,404
2018-10-18T08:50:07.462Z,356
2018-10-18T08:51:08.039Z,348
2018-10-18T08:52:08.616Z,424
2018-10-18T08:53:09.191Z,348
2018-10-18T08:54:09.766Z,408
2018-10-18T08:55:10.433Z,376
2018-10-18T08:56:10.927Z,376
2018-10-18T08:57:11.501Z,428
2018-10-18T08:58:12.091Z,352
2018-10-18T08:59:12.670Z,328
2018-10-18T09:00:13.248Z,316
2018-10-18T09:01:13.919Z,304
2018-10-18T09:02:14.399Z,304
2018-10-18T09:03:14.975Z,324
2018-10-18T09:04:15.551Z,364
2018-10-18T09:05:16.126Z,428
2018-10-18T09:06:16.703Z,388
2018-10-18T09:07:17.369Z,468
2018-10-18T09:08:17.859Z,432
2018-10-18T09:09:18.432Z,388
2018-10-18T09:10:19.009Z,392
2018-10-18T09:11:19.586Z,388
2018-10-18T09:12:20.170Z,384
2018-10-18T09:13:20.752Z,376
2018-10-18T09:14:21.326Z,392
2018-10-18T09:15:21.902Z,368
2018-10-18T09:16:22.481Z,416
2018-10-18T09:17:23.054Z,352
2018-10-18T09:18:23.630Z,360
2018-10-18T09:19:24.208Z,412
2018-10-18T09:20:24.794Z,376
2018-10-18T09:21:25.372Z,456
2018-10-18T09:22:25.959Z,480
2018-10-18T09:23:26.538Z,496
2018-10-18T09:24:27.113Z,508
2018-10-18T09:25:27.688Z,404
2018-10-18T09:26:28.264Z,392
2018-10-18T09:27:28.841Z,360
2018-10-18T09:28:29.415Z,360
2018-10-18T09:29:29.992Z,364
2018-10-18T09:30:30.906Z,364
2018-10-18T09:31:31.147Z,376
2018-10-18T09:32:31.724Z,388
2018-10-18T09:33:32.300Z,428
2018-10-18T09:34:32.889Z,424
2018-10-18T09:35:33.464Z,420
2018-10-18T09:36:34.041Z,404
2018-10-18T09:37:34.618Z,388
2018-10-18T09:38:35.194Z,392
2018-10-18T09:39:35.770Z,388
2018-10-18T09:40:36.346Z,364
2018-10-18T09:41:36.924Z,332
2018-10-18T09:42:37.500Z,316
2018-10-18T09:43:38.076Z,304
2018-10-18T09:44:38.694Z,284
2018-10-18T09:45:39.230Z,288
2018-10-18T09:46:39.818Z,324
2018-10-18T09:47:40.395Z,360
2018-10-18T09:48:40.972Z,396
2018-10-18T09:49:41.547Z,444
2018-10-18T09:50:42.127Z,488
2018-10-18T09:51:42.703Z,512
2018-10-18T09:52:43.279Z,520
2018-10-18T09:53:43.856Z,524
2018-10-18T09:54:44.432Z,528
2018-10-18T09:55:45.075Z,508
2018-10-18T09:56:45.586Z,488
2018-10-18T09:57:46.163Z,472
2018-10-18T09:58:46.738Z,440
2018-10-18T09:59:47.317Z,420
2018-10-18T10:00:47.891Z,404
2018-10-18T10:01:48.469Z,396
2018-10-18T10:02:49.043Z,372
2018-10-18T10:03:49.620Z,352
2018-10-18T10:04:50.210Z,348
2018-10-18T10:05:50.781Z,332
2018-10-18T10:06:51.359Z,296
2018-10-18T10:07:51.935Z,268
2018-10-18T10:08:52.523Z,260
2018-10-18T10:09:53.098Z,260
2018-10-18T10:10:53.673Z,276
2018-10-18T10:11:54.252Z,316
2018-10-18T10:12:54.853Z,356
2018-10-18T10:13:55.415Z,396
2018-10-18T10:14:55.991Z,436
2018-10-18T10:15:56.568Z,432
2018-10-18T10:16:57.143Z,436
2018-10-18T10:17:57.732Z,436
2018-10-18T10:18:58.369Z,428
2018-10-18T10:19:58.885Z,384
2018-10-18T10:20:59.462Z,364
2018-10-18T10:22:00.037Z,320
2018-10-18T10:23:00.613Z,280
2018-10-18T10:24:01.191Z,268
2018-10-18T10:25:01.929Z,252
2018-10-18T10:26:02.354Z,248
2018-10-18T10:27:02.931Z,276
2018-10-18T10:28:03.507Z,300
2018-10-18T10:29:04.098Z,304
2018-10-18T10:30:04.675Z,324
2018-10-18T10:31:05.251Z,344
2018-10-18T10:32:05.824Z,340
2018-10-18T10:33:06.580Z,340
2018-10-18T10:34:06.976Z,332
2018-10-18T10:35:07.626Z,316
2018-10-18T10:36:08.130Z,300
2018-10-18T10:37:08.815Z,308
2018-10-18T10:38:09.281Z,320
2018-10-18T10:39:09.867Z,328
2018-10-18T10:40:10.510Z,344
2018-10-18T10:41:11.097Z,360
2018-10-18T10:42:11.650Z,364
2018-10-18T10:43:12.166Z,376
2018-10-18T10:44:12.841Z,360
2018-10-18T10:45:13.426Z,348
2018-10-18T10:46:13.915Z,340
2018-10-18T10:47:14.473Z,316
2018-10-18T10:48:15.122Z,296
2018-10-18T10:49:15.678Z,276
2018-10-18T10:50:16.280Z,300
2018-10-18T10:51:16.848Z,300
2018-10-18T10:52:17.449Z,284
2018-10-18T10:53:17.931Z,308
2018-10-18T10:54:18.571Z,320
2018-10-18T10:55:19.085Z,324
2018-10-18T10:56:19.669Z,344
2018-10-18T10:57:20.237Z,364
2018-10-18T10:58:20.812Z,364
2018-10-18T10:59:21.390Z,360
2018-10-18T11:00:21.966Z,352
2018-10-18T11:01:22.541Z,332
2018-10-18T11:02:23.118Z,368
2018-10-18T11:03:23.694Z,396
2018-10-18T11:04:24.269Z,412
2018-10-18T11:05:24.845Z,444
2018-10-18T11:06:25.424Z,472
2018-10-18T11:07:26.000Z,460
2018-10-18T11:08:26.576Z,416
2018-10-18T11:09:27.251Z,368
2018-10-18T11:10:27.728Z,320
2018-10-18T11:11:28.314Z,304
2018-10-18T11:12:29.052Z,304
2018-10-18T11:13:29.468Z,320
2018-10-18T11:14:30.046Z,328
2018-10-18T11:15:30.622Z,332
2018-10-18T11:16:31.201Z,324
2018-10-18T11:17:31.777Z,280
2018-10-18T11:18:32.353Z,280
2018-10-18T11:19:32.929Z,304
2018-10-18T11:20:33.509Z,328
2018-10-18T11:21:34.200Z,320
2018-10-18T11:22:34.657Z,320
2018-10-18T11:23:35.234Z,324
2018-10-18T11:24:35.832Z,332
2018-10-18T11:25:36.401Z,324
2018-10-18T11:26:36.978Z,332
2018-10-18T11:27:37.552Z,368
2018-10-18T11:28:38.131Z,420
2018-10-18T11:29:38.710Z,424
2018-10-18T11:30:39.282Z,408
2018-10-18T11:31:39.870Z,408
2018-10-18T11:32:40.449Z,408
2018-10-18T11:33:41.024Z,416
2018-10-18T11:34:41.603Z,412
2018-10-18T11:35:42.181Z,424
2018-10-18T11:36:42.755Z,424
2018-10-18T11:37:43.330Z,404
2018-10-18T11:38:43.910Z,380
2018-10-18T11:39:44.486Z,356
2018-10-18T11:40:45.062Z,368
2018-10-18T11:41:45.638Z,400
2018-10-18T11:42:46.307Z,476
2018-10-18T11:43:46.793Z,544
2018-10-18T11:44:47.368Z,580
2018-10-18T11:45:47.945Z,600
2018-10-18T11:46:48.523Z,608
2018-10-18T11:47:49.098Z,584
2018-10-18T11:48:49.673Z,592
2018-10-18T11:49:50.262Z,564
2018-10-18T11:50:50.837Z,532
2018-10-18T11:51:51.448Z,508
2018-10-18T11:52:51.990Z,492
2018-10-18T11:53:52.576Z,464
2018-10-18T11:54:53.153Z,412
2018-10-18T11:55:53.759Z,396
2018-10-18T11:56:54.306Z,392
2018-10-18T11:57:54.882Z,376
2018-10-18T11:58:55.515Z,380
2018-10-18T11:59:56.037Z,444
2018-10-18T12:00:56.613Z,504
2018-10-18T12:01:57.244Z,556
2018-10-18T12:02:57.765Z,620
2018-10-18T12:03:58.347Z,668
2018-10-18T12:04:58.955Z,724
2018-10-18T12:05:59.497Z,692
2018-10-18T12:07:00.079Z,648
2018-10-18T12:08:00.665Z,588
2018-10-18T12:09:01.228Z,564
2018-10-18T12:10:01.811Z,516
2018-10-18T12:11:02.423Z,436
2018-10-18T12:12:02.961Z,368
2018-10-18T12:13:03.540Z,344
2018-10-18T12:14:04.137Z,300
2018-10-18T12:15:04.693Z,260
2018-10-18T12:16:05.269Z,240
2018-10-18T12:17:05.947Z,228
2018-10-18T12:18:06.433Z,228
2018-10-18T12:19:07.058Z,228
2018-10-18T12:20:07.632Z,220
2018-10-18T12:21:08.167Z,204
2018-10-18T12:22:08.743Z,172
2018-10-18T12:23:09.379Z,140
2018-10-18T12:24:09.894Z,108
2018-10-18T12:25:10.472Z,68
2018-10-18T12:26:11.061Z,64
2018-10-18T12:27:11.630Z,64
2018-10-18T12:28:12.202Z,76
2018-10-18T12:29:12.850Z,80
2018-10-18T12:30:13.353Z,88
2018-10-18T12:31:13.924Z,96
2018-10-18T12:32:14.613Z,104
2018-10-18T12:33:15.077Z,108
2018-10-18T12:34:15.653Z,112
2018-10-18T12:35:16.280Z,120
2018-10-18T12:36:16.803Z,136
2018-10-18T12:37:17.379Z,148
2018-10-18T12:38:18.056Z,164
2018-10-18T12:39:18.536Z,172
2018-10-18T12:40:19.246Z,172
2018-10-18T12:41:19.992Z,172
2018-10-18T12:42:20.267Z,176
2018-10-18T12:43:20.842Z,192
2018-10-18T12:44:21.424Z,220
2018-10-18T12:45:21.997Z,232
2018-10-18T12:46:22.573Z,220
2018-10-18T12:47:23.147Z,236
2018-10-18T12:48:23.872Z,248
2018-10-18T12:49:24.299Z,260
2018-10-18T12:50:24.876Z,264
2018-10-18T12:51:25.452Z,248
2018-10-18T12:52:26.027Z,236
2018-10-18T12:53:26.605Z,220
2018-10-18T12:54:27.231Z,200
2018-10-18T12:55:27.754Z,192
2018-10-18T12:56:28.328Z,192
2018-10-18T12:57:28.904Z,180
2018-10-18T12:58:29.480Z,176
2018-10-18T12:59:30.056Z,176
2018-10-18T13:00:30.639Z,172
2018-10-18T13:01:31.217Z,164
2018-10-18T13:02:31.804Z,172
2018-10-18T13:03:32.366Z,168
2018-10-18T13:04:32.940Z,168
2018-10-18T13:05:33.525Z,168
2018-10-18T13:06:34.101Z,180
2018-10-18T13:07:34.680Z,196
2018-10-18T13:08:35.255Z,212
2018-10-18T13:09:35.835Z,220
2018-10-18T13:10:36.448Z,232
2018-10-18T13:11:36.993Z,240
2018-10-18T13:12:37.694Z,228
2018-10-18T13:13:38.156Z,192
2018-10-18T13:14:38.747Z,172
2018-10-18T13:15:39.320Z,160
2018-10-18T13:16:39.895Z,128
2018-10-18T13:17:40.470Z,112
2018-10-18T13:18:41.047Z,100
2018-10-18T13:19:41.632Z,92
2018-10-18T13:20:42.208Z,108
2018-10-18T13:21:42.786Z,116
2018-10-18T13:22:43.359Z,128
2018-10-18T13:23:43.932Z,132
2018-10-18T13:24:44.508Z,136
2018-10-18T13:25:45.085Z,156
2018-10-18T13:26:45.659Z,184
2018-10-18T13:27:46.236Z,212
2018-10-18T13:28:46.813Z,228
2018-10-18T13:29:47.390Z,228
2018-10-18T13:30:47.966Z,216
2018-10-18T13:31:48.541Z,196
2018-10-18T13:32:49.114Z,184
2018-10-18T13:33:49.692Z,192
2018-10-18T13:34:50.266Z,212
2018-10-18T13:35:50.844Z,220
2018-10-18T13:36:51.419Z,220
2018-10-18T13:37:52.047Z,212
2018-10-18T13:38:52.623Z,196
2018-10-18T13:39:53.206Z,168
2018-10-18T13:40:53.868Z,140
2018-10-18T13:41:54.415Z,116
2018-10-18T13:42:54.938Z,108
2018-10-18T13:43:55.533Z,104
2018-10-18T13:44:56.085Z,96
2018-10-18T13:45:56.657Z,76
2018-10-18T13:46:57.232Z,80
2018-10-18T13:47:57.810Z,92
2018-10-18T13:48:58.382Z,100
2018-10-18T13:49:58.979Z,104
2018-10-18T13:50:59.532Z,120
2018-10-18T13:52:00.106Z,128
2018-10-18T13:53:00.682Z,140
2018-10-18T13:54:01.288Z,144
2018-10-18T13:55:01.836Z,148
2018-10-18T13:56:02.472Z,160
2018-10-18T13:57:02.992Z,176
2018-10-18T13:58:03.568Z,188
2018-10-18T13:59:04.149Z,196
2018-10-18T14:00:04.726Z,204
2018-10-18T14:01:05.292Z,212
2018-10-18T14:02:05.938Z,220
2018-10-18T14:03:06.443Z,236
2018-10-18T14:04:07.018Z,240
2018-10-18T14:05:07.660Z,248
2018-10-18T14:06:08.173Z,248
2018-10-18T14:07:08.748Z,244
2018-10-18T14:08:09.456Z,232
2018-10-18T14:09:09.902Z,228
2018-10-18T14:10:10.480Z,224
2018-10-18T14:11:11.147Z,220
2018-10-18T14:12:11.634Z,212
2018-10-18T14:13:12.208Z,200
2018-10-18T14:14:12.891Z,184
2018-10-18T14:15:13.357Z,168
2018-10-18T14:16:13.934Z,160
2018-10-18T14:17:14.561Z,144
2018-10-18T14:18:15.093Z,140
2018-10-18T14:19:15.669Z,136
2018-10-18T14:20:16.340Z,132
2018-10-18T14:21:16.820Z,124
2018-10-18T14:22:17.407Z,116